createdAt,value
2023-06-19T00:00:05.140Z,157.75
2023-06-19T00:01:05.160Z,158.93
2023-06-19T00:02:05.222Z,160.30
2023-06-19T00:03:05.283Z,162.53
2023-06-19T00:04:05.302Z,160.57
2023-06-19T00:05:05.268Z,162.33
2023-06-19T00:06:05.299Z,159.20
2023-06-19T00:07:05.352Z,161.59
2023-06-19T00:08:05.362Z,160.34
2023-06-19T00:09:05.372Z,159.88
2023-06-19T00:10:05.411Z,158.44
2023-06-19T00:11:05.475Z,157.61
2023-06-19T00:12:05.483Z,159.44
2023-06-19T00:13:05.505Z,159.28
2023-06-19T00:14:05.520Z,157.79
2023-06-19T00:15:05.564Z,158.38
2023-06-19T00:16:05.623Z,157.03
2023-06-19T00:17:05.616Z,157.61
2023-06-19T00:18:05.698Z,158.16
2023-06-19T00:19:05.675Z,159.92
2023-06-19T00:20:05.708Z,156.36
2023-06-19T00:21:05.738Z,158.55
2023-06-19T00:22:05.782Z,157.12
2023-06-19T00:23:05.800Z,156.42
2023-06-19T00:24:05.876Z,157.62
2023-06-19T00:25:05.869Z,156.82
2023-06-19T00:26:05.910Z,157.64
2023-06-19T00:27:05.936Z,154.27
2023-06-19T00:28:05.973Z,156.80
2023-06-19T00:29:06.009Z,155.12
2023-06-19T00:30:06.071Z,155.40
2023-06-19T00:31:06.066Z,154.61
2023-06-19T00:32:06.086Z,155.71
2023-06-19T00:33:06.158Z,155.01
2023-06-19T00:34:06.133Z,159.19
2023-06-19T00:35:06.155Z,156.01
2023-06-19T00:36:06.174Z,154.83
2023-06-19T00:37:06.210Z,154.12
2023-06-19T00:38:06.228Z,155.19
2023-06-19T00:39:06.254Z,152.23
2023-06-19T00:40:06.274Z,156.86
2023-06-19T00:41:06.302Z,159.46
2023-06-19T00:42:06.335Z,157.09
2023-06-19T00:43:06.347Z,156.52
2023-06-19T00:44:06.376Z,153.72
2023-06-19T00:45:06.402Z,155.61
2023-06-19T00:46:06.556Z,153.68
2023-06-19T00:47:06.481Z,154.19
2023-06-19T00:48:06.564Z,154.24
2023-06-19T00:49:06.538Z,151.89
2023-06-19T00:50:07.084Z,156.38
2023-06-19T00:51:06.594Z,157.16
2023-06-19T00:52:06.624Z,153.66
2023-06-19T00:53:06.659Z,151.89
2023-06-19T00:54:06.692Z,154.32
2023-06-19T00:55:06.725Z,158.18
2023-06-19T00:56:06.765Z,155.63
2023-06-19T00:57:06.787Z,160.27
2023-06-19T00:58:06.828Z,154.95
2023-06-19T00:59:06.846Z,158.26
2023-06-19T01:00:06.894Z,156.98
2023-06-19T01:01:09.195Z,156.11
2023-06-19T01:02:07.037Z,154.90
2023-06-19T01:03:06.925Z,157.02
2023-06-19T01:04:06.916Z,156.42
2023-06-19T01:05:06.795Z,157.33
2023-06-19T01:06:06.768Z,153.47
2023-06-19T01:07:06.736Z,152.88
2023-06-19T01:08:06.695Z,155.77
2023-06-19T01:09:06.667Z,157.00
2023-06-19T01:10:06.628Z,155.35
2023-06-19T01:11:14.899Z,154.75
2023-06-19T01:12:07.574Z,155.02
2023-06-19T01:13:06.528Z,156.06
2023-06-19T01:14:06.487Z,156.56
2023-06-19T01:15:06.493Z,159.11
2023-06-19T01:16:06.440Z,158.83
2023-06-19T01:17:06.550Z,158.50
2023-06-19T01:18:06.430Z,159.40
2023-06-19T01:19:06.366Z,158.19
2023-06-19T01:20:06.350Z,162.00
2023-06-19T01:21:06.382Z,158.40
2023-06-19T01:22:06.408Z,154.66
2023-06-19T01:23:06.446Z,156.82
2023-06-19T01:24:06.531Z,160.61
2023-06-19T01:25:06.525Z,158.09
2023-06-19T01:26:06.549Z,156.03
2023-06-19T01:27:06.578Z,156.38
2023-06-19T01:28:06.612Z,159.01
2023-06-19T01:29:06.659Z,154.30
2023-06-19T01:30:06.681Z,154.62
2023-06-19T01:31:06.706Z,154.93
2023-06-19T01:32:06.736Z,155.35
2023-06-19T01:33:06.820Z,152.55
2023-06-19T01:34:06.826Z,158.63
2023-06-19T01:35:06.848Z,155.71
2023-06-19T01:36:06.884Z,154.60
2023-06-19T01:37:06.899Z,153.87
2023-06-19T01:38:06.939Z,154.42
2023-06-19T01:39:06.958Z,152.90
2023-06-19T01:40:07.003Z,152.43
2023-06-19T01:41:07.023Z,154.06
2023-06-19T01:42:07.068Z,155.51
2023-06-19T01:43:07.109Z,155.73
2023-06-19T01:44:07.131Z,153.59
2023-06-19T01:45:07.170Z,151.80
2023-06-19T01:46:07.293Z,153.49
2023-06-19T01:47:07.219Z,154.26
2023-06-19T01:48:07.325Z,155.34
2023-06-19T01:49:07.294Z,156.77
2023-06-19T01:50:07.328Z,155.30
2023-06-19T01:51:07.351Z,154.47
2023-06-19T01:52:07.381Z,152.17
2023-06-19T01:53:07.414Z,154.89
2023-06-19T01:54:07.455Z,154.05
2023-06-19T01:55:07.523Z,157.25
2023-06-19T01:56:07.587Z,154.05
2023-06-19T01:57:07.547Z,156.43
2023-06-19T01:58:07.585Z,153.46
2023-06-19T01:59:07.615Z,155.88
2023-06-19T02:00:07.630Z,153.42
2023-06-19T02:01:07.676Z,154.73
2023-06-19T02:02:07.708Z,150.31
2023-06-19T02:03:07.801Z,157.60
2023-06-19T02:04:07.826Z,152.29
2023-06-19T02:05:07.810Z,155.61
2023-06-19T02:06:07.849Z,153.98
2023-06-19T02:07:07.881Z,152.23
2023-06-19T02:08:07.953Z,154.64
2023-06-19T02:09:07.934Z,151.46
2023-06-19T02:10:07.965Z,157.99
2023-06-19T02:11:07.993Z,153.20
2023-06-19T02:12:08.027Z,151.19
2023-06-19T02:13:08.067Z,151.15
2023-06-19T02:14:08.090Z,152.65
2023-06-19T02:15:08.144Z,152.93
2023-06-19T02:16:08.234Z,154.41
2023-06-19T02:17:08.206Z,154.40
2023-06-19T02:18:08.257Z,154.30
2023-06-19T02:19:08.307Z,154.47
2023-06-19T02:20:08.325Z,155.41
2023-06-19T02:21:08.376Z,157.03
2023-06-19T02:22:08.401Z,154.40
2023-06-19T02:23:08.431Z,155.67
2023-06-19T02:24:08.485Z,154.70
2023-06-19T02:25:08.513Z,152.04
2023-06-19T02:26:08.565Z,153.64
2023-06-19T02:27:08.592Z,154.73
2023-06-19T02:28:08.626Z,151.50
2023-06-19T02:29:08.664Z,152.71
2023-06-19T02:30:08.704Z,152.08
2023-06-19T02:31:08.846Z,151.80
2023-06-19T02:32:08.789Z,151.42
2023-06-19T02:33:08.869Z,153.74
2023-06-19T02:34:08.856Z,152.78
2023-06-19T02:35:08.927Z,152.70
2023-06-19T02:36:08.941Z,153.98
2023-06-19T02:37:08.984Z,151.83
2023-06-19T02:38:09.029Z,151.41
2023-06-19T02:39:09.070Z,154.50
2023-06-19T02:40:09.123Z,154.08
2023-06-19T02:41:09.153Z,153.53
2023-06-19T02:42:09.196Z,151.56
2023-06-19T02:43:09.227Z,151.74
2023-06-19T02:44:09.265Z,156.52
2023-06-19T02:45:09.298Z,153.16
2023-06-19T02:46:12.228Z,151.87
2023-06-19T02:47:09.303Z,158.49
2023-06-19T02:48:09.275Z,155.63
2023-06-19T02:49:09.244Z,153.81
2023-06-19T02:50:09.220Z,157.70
2023-06-19T02:51:09.217Z,154.51
2023-06-19T02:52:09.178Z,154.58
2023-06-19T02:53:09.164Z,154.83
2023-06-19T02:54:09.130Z,155.61
2023-06-19T02:55:09.183Z,153.97
2023-06-19T02:56:09.063Z,154.03
2023-06-19T02:57:09.053Z,154.53
2023-06-19T02:58:09.016Z,153.94
2023-06-19T02:59:09.000Z,155.97
2023-06-19T03:00:08.976Z,157.01
2023-06-19T03:01:08.980Z,152.16
2023-06-19T03:02:08.951Z,153.23
2023-06-19T03:03:09.054Z,154.99
2023-06-19T03:04:08.887Z,152.71
2023-06-19T03:05:08.866Z,153.33
2023-06-19T03:06:08.847Z,155.16
2023-06-19T03:07:08.824Z,154.58
2023-06-19T03:08:08.800Z,154.80
2023-06-19T03:09:08.773Z,152.30
2023-06-19T03:10:08.754Z,152.40
2023-06-19T03:11:08.724Z,155.24
2023-06-19T03:12:08.714Z,154.44
2023-06-19T03:13:08.745Z,155.65
2023-06-19T03:14:08.790Z,153.67
2023-06-19T03:15:08.825Z,155.89
2023-06-19T03:16:08.957Z,151.98
2023-06-19T03:17:08.934Z,151.53
2023-06-19T03:18:09.016Z,154.07
2023-06-19T03:19:08.973Z,153.74
2023-06-19T03:20:09.013Z,152.46
2023-06-19T03:21:09.056Z,154.59
2023-06-19T03:22:09.103Z,151.11
2023-06-19T03:23:09.149Z,153.15
2023-06-19T03:24:09.209Z,155.85
2023-06-19T03:25:09.232Z,152.88
2023-06-19T03:26:09.248Z,153.62
2023-06-19T03:27:09.293Z,154.94
2023-06-19T03:28:09.329Z,153.41
2023-06-19T03:29:09.395Z,152.69
2023-06-19T03:30:09.406Z,151.93
2023-06-19T03:31:09.437Z,152.25
2023-06-19T03:32:09.477Z,150.41
2023-06-19T03:33:09.537Z,154.23
2023-06-19T03:34:09.558Z,150.71
2023-06-19T03:35:09.639Z,152.38
2023-06-19T03:36:09.644Z,154.78
2023-06-19T03:37:09.690Z,155.88
2023-06-19T03:38:09.747Z,152.72
2023-06-19T03:39:09.766Z,153.17
2023-06-19T03:40:09.811Z,151.51
2023-06-19T03:41:09.852Z,154.74
2023-06-19T03:42:09.913Z,149.68
2023-06-19T03:43:09.934Z,150.64
2023-06-19T03:44:09.972Z,149.89
2023-06-19T03:45:10.034Z,151.94
2023-06-19T03:46:10.128Z,152.12
2023-06-19T03:47:10.103Z,151.36
2023-06-19T03:48:10.171Z,151.11
2023-06-19T03:49:10.192Z,153.71
2023-06-19T03:50:19.758Z,154.30
2023-06-19T03:51:11.207Z,154.37
2023-06-19T03:52:10.179Z,154.45
2023-06-19T03:53:10.155Z,153.03
2023-06-19T03:54:10.124Z,153.42
2023-06-19T03:55:10.090Z,153.80
2023-06-19T03:56:10.069Z,152.66
2023-06-19T03:57:10.048Z,152.99
2023-06-19T03:58:10.035Z,152.56
2023-06-19T03:59:10.052Z,153.38
2023-06-19T04:00:10.090Z,151.07
2023-06-19T04:01:10.191Z,151.69
2023-06-19T04:02:10.163Z,152.39
2023-06-19T04:03:10.335Z,153.62
2023-06-19T04:04:10.383Z,154.27
2023-06-19T04:05:10.349Z,154.00
2023-06-19T04:06:10.325Z,154.72
2023-06-19T04:07:10.374Z,156.02
2023-06-19T04:08:10.420Z,153.22
2023-06-19T04:09:10.451Z,154.25
2023-06-19T04:10:10.502Z,152.64
2023-06-19T04:11:10.535Z,150.74
2023-06-19T04:12:10.573Z,152.73
2023-06-19T04:13:10.613Z,152.93
2023-06-19T04:14:10.651Z,154.36
2023-06-19T04:15:10.704Z,149.96
2023-06-19T04:16:10.768Z,150.31
2023-06-19T04:17:10.759Z,150.78
2023-06-19T04:18:10.787Z,153.98
2023-06-19T04:19:10.823Z,153.07
2023-06-19T04:20:10.846Z,148.83
2023-06-19T04:21:10.894Z,152.20
2023-06-19T04:22:10.937Z,148.37
2023-06-19T04:23:10.980Z,149.52
2023-06-19T04:24:11.023Z,152.66
2023-06-19T04:25:11.099Z,150.63
2023-06-19T04:26:11.099Z,153.66
2023-06-19T04:27:11.156Z,152.52
2023-06-19T04:28:11.169Z,150.00
2023-06-19T04:29:11.221Z,150.32
2023-06-19T04:30:11.257Z,150.39
2023-06-19T04:31:11.292Z,154.03
2023-06-19T04:32:11.346Z,152.92
2023-06-19T04:33:11.539Z,154.46
2023-06-19T04:34:11.419Z,151.78
2023-06-19T04:35:11.567Z,148.79
2023-06-19T04:36:11.490Z,151.87
2023-06-19T04:37:11.517Z,152.69
2023-06-19T04:38:11.575Z,151.99
2023-06-19T04:39:11.608Z,150.96
2023-06-19T04:40:11.649Z,150.63
2023-06-19T04:41:11.691Z,153.58
2023-06-19T04:42:11.735Z,149.15
2023-06-19T04:43:11.779Z,149.81
2023-06-19T04:44:11.816Z,153.17
2023-06-19T04:45:11.878Z,150.82
2023-06-19T04:46:11.913Z,149.55
2023-06-19T04:47:11.910Z,148.55
2023-06-19T04:48:12.013Z,150.64
2023-06-19T04:49:11.968Z,151.53
2023-06-19T04:50:12.026Z,150.33
2023-06-19T04:51:12.041Z,148.67
2023-06-19T04:52:12.075Z,149.56
2023-06-19T04:53:12.108Z,151.36
2023-06-19T04:54:12.139Z,151.44
2023-06-19T04:55:12.181Z,151.34
2023-06-19T04:56:12.204Z,152.51
2023-06-19T04:57:12.250Z,153.04
2023-06-19T04:58:12.278Z,148.90
2023-06-19T04:59:12.315Z,153.34
2023-06-19T05:00:12.361Z,152.96
2023-06-19T05:01:12.395Z,153.15
2023-06-19T05:02:12.398Z,153.01
2023-06-19T05:03:12.499Z,152.79
2023-06-19T05:04:12.538Z,149.47
2023-06-19T05:05:12.630Z,149.70
2023-06-19T05:06:12.538Z,149.95
2023-06-19T05:07:12.566Z,154.98
2023-06-19T05:08:12.592Z,154.48
2023-06-19T05:09:12.619Z,149.84
2023-06-19T05:10:12.647Z,153.82
2023-06-19T05:11:12.672Z,153.10
2023-06-19T05:12:12.717Z,150.90
2023-06-19T05:13:12.757Z,151.37
2023-06-19T05:14:12.768Z,150.05
2023-06-19T05:15:12.816Z,152.66
2023-06-19T05:16:12.926Z,155.58
2023-06-19T05:17:12.873Z,151.03
2023-06-19T05:18:12.932Z,150.25
2023-06-19T05:19:12.902Z,152.14
2023-06-19T05:20:12.988Z,151.68
2023-06-19T05:21:12.994Z,152.38
2023-06-19T05:22:13.006Z,150.74
2023-06-19T05:23:13.024Z,154.51
2023-06-19T05:24:13.110Z,151.75
2023-06-19T05:25:13.104Z,155.59
2023-06-19T05:26:13.114Z,159.23
2023-06-19T05:27:13.663Z,160.25
2023-06-19T05:28:13.151Z,166.86
2023-06-19T05:29:13.213Z,168.69
2023-06-19T05:30:13.181Z,171.71
2023-06-19T05:31:14.254Z,172.04
2023-06-19T05:32:13.232Z,173.93
2023-06-19T05:33:13.099Z,178.34
2023-06-19T05:34:13.060Z,184.38
2023-06-19T05:35:15.459Z,197.01
2023-06-19T05:36:13.015Z,202.22
2023-06-19T05:37:12.994Z,203.59
2023-06-19T05:38:12.962Z,204.34
2023-06-19T05:39:12.990Z,205.08
2023-06-19T05:40:12.900Z,204.54
2023-06-19T05:41:12.874Z,211.38
2023-06-19T05:42:12.841Z,207.76
2023-06-19T05:43:12.819Z,210.49
2023-06-19T05:44:12.797Z,210.66
2023-06-19T05:45:12.787Z,210.19
2023-06-19T05:46:12.771Z,208.42
2023-06-19T05:47:12.762Z,210.58
2023-06-19T05:48:12.678Z,209.09
2023-06-19T05:49:12.712Z,210.31
2023-06-19T05:50:12.611Z,209.08
2023-06-19T05:51:12.589Z,213.33
2023-06-19T05:52:12.554Z,209.71
2023-06-19T05:53:15.410Z,206.49
2023-06-19T05:54:12.494Z,206.81
2023-06-19T05:55:12.537Z,207.14
2023-06-19T05:56:12.423Z,208.40
2023-06-19T05:57:12.403Z,210.46
2023-06-19T05:58:12.356Z,211.73
2023-06-19T05:59:12.320Z,211.23
2023-06-19T06:00:12.281Z,214.48
2023-06-19T06:01:12.326Z,212.53
2023-06-19T06:02:12.219Z,211.17
2023-06-19T06:03:12.187Z,210.58
2023-06-19T06:04:12.208Z,211.42
2023-06-19T06:05:12.132Z,212.75
2023-06-19T06:06:12.084Z,209.39
2023-06-19T06:07:12.054Z,210.01
2023-06-19T06:08:12.023Z,208.60
2023-06-19T06:09:12.740Z,210.44
2023-06-19T06:10:11.960Z,202.93
2023-06-19T06:11:11.944Z,209.70
2023-06-19T06:12:11.921Z,210.15
2023-06-19T06:13:11.858Z,209.95
2023-06-19T06:14:13.490Z,209.89
2023-06-19T06:15:11.800Z,209.52
2023-06-19T06:16:11.783Z,212.81
2023-06-19T06:17:11.826Z,211.97
2023-06-19T06:18:11.743Z,212.14
2023-06-19T06:19:11.673Z,211.61
2023-06-19T06:20:11.647Z,210.00
2023-06-19T06:21:11.618Z,210.71
2023-06-19T06:22:11.576Z,213.26
2023-06-19T06:23:11.556Z,211.92
2023-06-19T06:24:11.562Z,213.71
2023-06-19T06:25:13.094Z,219.27
2023-06-19T06:26:11.538Z,218.82
2023-06-19T06:27:11.436Z,223.89
2023-06-19T06:28:11.408Z,204.00
2023-06-19T06:29:11.358Z,196.73
2023-06-19T06:30:11.335Z,174.34
2023-06-19T06:31:12.247Z,161.97
2023-06-19T06:32:11.265Z,156.25
2023-06-19T06:33:11.228Z,149.81
2023-06-19T06:34:11.216Z,150.25
2023-06-19T06:35:11.205Z,106.28
2023-06-19T06:36:11.656Z,85.23
2023-06-19T06:37:11.165Z,73.64
2023-06-19T06:38:11.148Z,58.31
2023-06-19T06:39:11.104Z,50.97
2023-06-19T06:40:11.084Z,36.39
2023-06-19T06:41:11.038Z,32.83
2023-06-19T06:42:11.008Z,29.21
2023-06-19T06:43:10.971Z,25.00
2023-06-19T06:44:10.931Z,26.73
2023-06-19T06:45:10.930Z,30.43
2023-06-19T06:46:10.935Z,27.25
2023-06-19T06:47:10.862Z,41.36
2023-06-19T06:48:10.956Z,52.22
2023-06-19T06:49:10.784Z,47.46
2023-06-19T06:50:10.719Z,38.93
2023-06-19T06:51:10.691Z,44.36
2023-06-19T06:52:10.645Z,39.59
2023-06-19T06:53:10.628Z,27.78
2023-06-19T06:54:10.571Z,20.70
2023-06-19T06:55:10.540Z,8.58
2023-06-19T06:56:10.501Z,25.00
2023-06-19T06:57:10.456Z,28.23
2023-06-19T06:58:10.423Z,23.34
2023-06-19T06:59:10.375Z,28.88
2023-06-19T07:00:10.348Z,26.06
2023-06-19T07:01:10.356Z,19.16
2023-06-19T07:02:10.303Z,24.56
2023-06-19T07:03:10.292Z,25.00
2023-06-19T07:04:10.201Z,24.90
2023-06-19T07:05:10.179Z,24.17
2023-06-19T07:06:10.142Z,22.17
2023-06-19T07:07:10.109Z,23.11
2023-06-19T07:08:10.092Z,24.77
2023-06-19T07:09:10.036Z,27.27
2023-06-19T07:10:10.026Z,31.96
2023-06-19T07:11:09.974Z,25.26
2023-06-19T07:12:09.941Z,23.74
2023-06-19T07:13:09.892Z,38.46
2023-06-19T07:14:09.854Z,33.98
2023-06-19T07:15:09.821Z,25.00
2023-06-19T07:16:09.776Z,27.43
2023-06-19T07:17:09.849Z,24.43
2023-06-19T07:18:09.781Z,25.00
2023-06-19T07:19:09.665Z,26.38
2023-06-19T07:20:09.642Z,29.92
2023-06-19T07:21:09.596Z,32.05
2023-06-19T07:22:09.591Z,32.15
2023-06-19T07:23:09.532Z,33.94
2023-06-19T07:24:09.543Z,32.37
2023-06-19T07:25:09.544Z,35.25
2023-06-19T07:26:09.504Z,38.89
2023-06-19T07:27:09.489Z,39.97
2023-06-19T07:28:09.504Z,43.09
2023-06-19T07:29:09.488Z,46.12
2023-06-19T07:30:09.486Z,49.25
2023-06-19T07:31:09.550Z,51.75
2023-06-19T07:32:09.445Z,53.55
2023-06-19T07:33:09.469Z,58.25
2023-06-19T07:34:09.634Z,59.69
2023-06-19T07:35:09.401Z,62.00
2023-06-19T07:36:09.416Z,64.05
2023-06-19T07:37:09.436Z,66.76
2023-06-19T07:38:09.410Z,69.85
2023-06-19T07:39:09.699Z,73.31
2023-06-19T07:40:09.410Z,75.53
2023-06-19T07:41:10.204Z,77.54
2023-06-19T07:42:09.413Z,79.02
2023-06-19T07:43:09.437Z,82.05
2023-06-19T07:44:09.423Z,84.72
2023-06-19T07:45:09.500Z,87.85
2023-06-19T07:46:09.430Z,92.33
2023-06-19T07:47:09.419Z,95.10
2023-06-19T07:48:09.430Z,95.76
2023-06-19T07:49:09.411Z,96.64
2023-06-19T07:50:09.393Z,100.16
2023-06-19T07:51:09.399Z,104.31
2023-06-19T07:52:09.370Z,104.73
2023-06-19T07:53:09.380Z,108.54
2023-06-19T07:54:09.361Z,109.83
2023-06-19T07:55:09.591Z,112.73
2023-06-19T07:56:09.344Z,115.93
2023-06-19T07:57:09.300Z,117.05
2023-06-19T07:58:09.306Z,119.70
2023-06-19T07:59:09.273Z,122.37
2023-06-19T08:00:09.256Z,124.54
2023-06-19T08:01:09.238Z,125.55
2023-06-19T08:02:09.265Z,126.67
2023-06-19T08:03:09.255Z,129.20
2023-06-19T08:04:09.150Z,132.15
2023-06-19T08:05:09.196Z,132.75
2023-06-19T08:06:09.185Z,134.32
2023-06-19T08:07:09.064Z,136.04
2023-06-19T08:08:09.046Z,139.04
2023-06-19T08:09:09.010Z,140.91
2023-06-19T08:10:14.039Z,141.98
2023-06-19T08:11:09.994Z,142.06
2023-06-19T08:12:08.930Z,142.72
2023-06-19T08:13:08.896Z,143.61
2023-06-19T08:14:08.852Z,146.83
2023-06-19T08:15:09.801Z,151.23
2023-06-19T08:16:08.761Z,155.92
2023-06-19T08:17:08.765Z,161.25
2023-06-19T08:18:08.761Z,161.88
2023-06-19T08:19:08.653Z,165.36
2023-06-19T08:20:08.623Z,169.10
2023-06-19T08:21:08.588Z,174.33
2023-06-19T08:22:08.545Z,180.39
2023-06-19T08:23:08.514Z,183.81
2023-06-19T08:24:08.521Z,186.62
2023-06-19T08:25:08.434Z,190.66
2023-06-19T08:26:08.399Z,196.74
2023-06-19T08:27:08.365Z,202.41
2023-06-19T08:28:08.337Z,205.98
2023-06-19T08:29:08.314Z,209.66
2023-06-19T08:30:08.252Z,212.36
2023-06-19T08:31:08.220Z,215.50
2023-06-19T08:32:08.192Z,217.93
2023-06-19T08:33:08.197Z,220.96
2023-06-19T08:34:08.127Z,222.22
2023-06-19T08:35:08.191Z,223.90
2023-06-19T08:36:08.061Z,225.41
2023-06-19T08:37:09.022Z,225.49
2023-06-19T08:38:07.987Z,225.92
2023-06-19T08:39:08.809Z,226.99
2023-06-19T08:40:07.897Z,228.95
2023-06-19T08:41:07.857Z,233.00
2023-06-19T08:42:07.823Z,233.05
2023-06-19T08:43:07.792Z,233.42
2023-06-19T08:44:07.749Z,235.07
2023-06-19T08:45:07.717Z,234.79
2023-06-19T08:46:07.715Z,235.56
2023-06-19T08:47:07.653Z,238.06
2023-06-19T08:48:07.646Z,236.30
2023-06-19T08:49:07.614Z,238.88
2023-06-19T08:50:07.603Z,239.52
2023-06-19T08:51:07.522Z,239.85
2023-06-19T08:52:07.484Z,239.94
2023-06-19T08:53:07.445Z,241.11
2023-06-19T08:54:07.404Z,241.77
2023-06-19T08:55:07.377Z,242.43
2023-06-19T08:56:07.352Z,244.51
2023-06-19T08:57:07.349Z,244.19
2023-06-19T08:58:07.292Z,245.09
2023-06-19T08:59:07.254Z,244.71
2023-06-19T09:00:07.223Z,246.34
2023-06-19T09:01:07.193Z,246.60
2023-06-19T09:02:07.182Z,247.32
2023-06-19T09:03:13.588Z,247.77
2023-06-19T09:04:08.216Z,247.88
2023-06-19T09:05:07.068Z,248.23
2023-06-19T09:06:07.131Z,248.29
2023-06-19T09:07:07.302Z,249.15
2023-06-19T09:08:06.983Z,250.38
2023-06-19T09:09:06.952Z,250.09
2023-06-19T09:10:06.925Z,249.27
2023-06-19T09:11:09.071Z,248.52
2023-06-19T09:12:06.855Z,248.63
2023-06-19T09:13:06.833Z,248.90
2023-06-19T09:14:06.798Z,249.55
2023-06-19T09:15:06.769Z,250.01
2023-06-19T09:16:06.750Z,251.71
2023-06-19T09:17:06.719Z,249.69
2023-06-19T09:18:06.834Z,248.17
2023-06-19T09:19:06.695Z,249.74
2023-06-19T09:20:06.638Z,248.46
2023-06-19T09:21:06.597Z,250.00
2023-06-19T09:22:06.566Z,248.23
2023-06-19T09:23:06.536Z,249.26
2023-06-19T09:24:06.518Z,249.76
2023-06-19T09:25:06.466Z,250.34
2023-06-19T09:26:06.435Z,248.33
2023-06-19T09:27:06.405Z,249.90
2023-06-19T09:28:06.450Z,248.64
2023-06-19T09:29:06.361Z,249.62
2023-06-19T09:30:06.336Z,249.26
2023-06-19T09:31:06.365Z,248.62
2023-06-19T09:32:06.267Z,249.39
2023-06-19T09:33:06.343Z,249.25
2023-06-19T09:34:07.211Z,249.35
2023-06-19T09:35:06.181Z,249.58
2023-06-19T09:36:06.154Z,249.84
2023-06-19T09:37:06.135Z,249.77
2023-06-19T09:38:06.104Z,251.51
2023-06-19T09:39:06.076Z,249.18
2023-06-19T09:40:06.032Z,249.14
2023-06-19T09:41:06.023Z,248.94
2023-06-19T09:42:05.966Z,248.64
2023-06-19T09:43:05.944Z,249.16
2023-06-19T09:44:05.891Z,248.69
2023-06-19T09:45:06.865Z,248.67
2023-06-19T09:46:05.820Z,248.95
2023-06-19T09:47:06.837Z,249.44
2023-06-19T09:48:05.772Z,249.06
2023-06-19T09:49:05.717Z,249.47
2023-06-19T09:50:05.722Z,248.68
2023-06-19T09:51:05.647Z,248.67
2023-06-19T09:52:05.627Z,248.07
2023-06-19T09:53:06.267Z,249.09
2023-06-19T09:54:05.561Z,249.15
2023-06-19T09:55:05.532Z,249.32
2023-06-19T09:56:05.570Z,249.10
2023-06-19T09:57:05.473Z,248.79
2023-06-19T09:58:05.442Z,248.22
2023-06-19T09:59:05.409Z,250.00
2023-06-19T10:00:05.381Z,249.50
2023-06-19T10:01:05.370Z,249.34
2023-06-19T10:02:05.379Z,249.11
2023-06-19T10:03:05.438Z,248.11
2023-06-19T10:04:05.273Z,248.96
2023-06-19T10:05:05.271Z,248.77
2023-06-19T10:06:05.217Z,248.27
2023-06-19T10:07:05.217Z,248.13
2023-06-19T10:08:05.230Z,248.77
2023-06-19T10:09:05.207Z,248.97
2023-06-19T10:10:05.247Z,248.75
2023-06-19T10:11:05.225Z,248.82
2023-06-19T10:12:05.217Z,249.18
2023-06-19T10:13:05.245Z,249.26
2023-06-19T10:14:05.235Z,249.22
2023-06-19T10:15:05.230Z,249.03
2023-06-19T10:16:05.237Z,248.79
2023-06-19T10:17:05.269Z,249.16
2023-06-19T10:18:05.277Z,248.98
2023-06-19T10:19:05.404Z,249.05
2023-06-19T10:20:05.234Z,249.27
2023-06-19T10:21:05.240Z,249.15
2023-06-19T10:22:05.862Z,248.15
2023-06-19T10:23:05.601Z,249.51
2023-06-19T10:24:05.277Z,248.93
2023-06-19T10:25:05.231Z,249.12
2023-06-19T10:26:05.256Z,250.00
2023-06-19T10:27:05.257Z,248.30
2023-06-19T10:28:05.257Z,249.78
2023-06-19T10:29:05.240Z,249.46
2023-06-19T10:30:11.845Z,247.73
2023-06-19T10:31:06.293Z,247.85
2023-06-19T10:32:05.188Z,248.05
2023-06-19T10:33:05.259Z,248.87
2023-06-19T10:34:05.147Z,249.65
2023-06-19T10:35:05.109Z,250.23
2023-06-19T10:36:05.083Z,249.65
2023-06-19T10:37:05.048Z,250.00
2023-06-19T10:38:07.884Z,248.59
2023-06-19T10:39:04.998Z,249.49
2023-06-19T10:40:04.966Z,249.14
2023-06-19T10:41:04.934Z,249.04
2023-06-19T10:42:05.949Z,249.18
2023-06-19T10:43:04.908Z,249.04
2023-06-19T10:44:04.862Z,248.63
2023-06-19T10:45:04.836Z,248.58
2023-06-19T10:46:04.858Z,248.02
2023-06-19T10:47:04.778Z,248.28
2023-06-19T10:48:04.837Z,247.73
2023-06-19T10:49:04.738Z,247.68
2023-06-19T10:50:04.711Z,247.06
2023-06-19T10:51:04.687Z,247.40
2023-06-19T10:52:04.672Z,247.11
2023-06-19T10:53:04.655Z,246.99
2023-06-19T10:54:04.609Z,247.92
2023-06-19T10:55:04.598Z,246.78
2023-06-19T10:56:04.553Z,246.88
2023-06-19T10:57:04.515Z,247.16
2023-06-19T10:58:04.493Z,247.43
2023-06-19T10:59:04.482Z,246.62
2023-06-19T11:00:04.414Z,246.26
2023-06-19T11:01:04.381Z,246.68
2023-06-19T11:02:04.464Z,246.65
2023-06-19T11:03:04.366Z,246.78
2023-06-19T11:04:04.300Z,246.07
2023-06-19T11:05:04.213Z,245.63
2023-06-19T11:06:04.171Z,245.58
2023-06-19T11:07:04.183Z,245.80
2023-06-19T11:08:04.099Z,246.14
2023-06-19T11:09:04.062Z,245.20
2023-06-19T11:10:04.026Z,245.32
2023-06-19T11:11:03.980Z,244.34
2023-06-19T11:12:03.953Z,245.50
2023-06-19T11:13:03.912Z,244.03
2023-06-19T11:14:03.866Z,244.40
2023-06-19T11:15:03.838Z,243.11
2023-06-19T11:16:03.792Z,243.72
2023-06-19T11:17:03.794Z,243.51
2023-06-19T11:18:03.747Z,242.52
2023-06-19T11:19:03.667Z,243.43
2023-06-19T11:20:03.631Z,242.56
2023-06-19T11:21:03.587Z,243.36
2023-06-19T11:22:03.551Z,242.87
2023-06-19T11:23:03.543Z,241.73
2023-06-19T11:24:03.519Z,242.66
2023-06-19T11:25:03.437Z,241.13
2023-06-19T11:26:03.397Z,240.93
2023-06-19T11:27:03.365Z,241.81
2023-06-19T11:28:03.338Z,241.42
2023-06-19T11:29:03.283Z,241.12
2023-06-19T11:30:03.241Z,241.49
2023-06-19T11:31:03.288Z,242.90
2023-06-19T11:32:03.162Z,241.45
2023-06-19T11:33:03.182Z,240.86
2023-06-19T11:34:03.078Z,241.80
2023-06-19T11:35:03.044Z,240.99
2023-06-19T11:36:03.037Z,241.76
2023-06-19T11:37:03.041Z,240.50
2023-06-19T11:38:02.938Z,241.47
2023-06-19T11:39:02.942Z,241.98
2023-06-19T11:40:02.860Z,241.75
2023-06-19T11:41:02.803Z,241.98
2023-06-19T11:42:02.778Z,241.88
2023-06-19T11:43:02.728Z,243.44
2023-06-19T11:44:02.678Z,241.29
2023-06-19T11:45:02.632Z,242.26
2023-06-19T11:46:02.633Z,242.60
2023-06-19T11:47:02.553Z,241.28
2023-06-19T11:48:02.582Z,242.14
2023-06-19T11:49:07.239Z,242.52
2023-06-19T11:50:03.444Z,242.60
2023-06-19T11:51:02.413Z,242.82
2023-06-19T11:52:02.379Z,242.77
2023-06-19T11:53:02.343Z,243.27
2023-06-19T11:54:02.307Z,243.75
2023-06-19T11:55:02.280Z,243.09
2023-06-19T11:56:02.242Z,242.73
2023-06-19T11:57:02.200Z,243.52
2023-06-19T11:58:02.186Z,243.66
2023-06-19T11:59:02.148Z,244.21
2023-06-19T12:00:02.112Z,242.53
2023-06-19T12:01:02.059Z,242.69
2023-06-19T12:02:02.042Z,242.12
2023-06-19T12:03:02.157Z,243.38
2023-06-19T12:04:02.167Z,242.81
2023-06-19T12:05:01.923Z,241.74
2023-06-19T12:06:01.886Z,242.75
2023-06-19T12:07:01.847Z,241.37
2023-06-19T12:08:01.817Z,242.27
2023-06-19T12:09:01.767Z,241.72
2023-06-19T12:10:03.781Z,239.98
2023-06-19T12:11:01.705Z,241.54
2023-06-19T12:12:01.689Z,241.34
2023-06-19T12:13:01.614Z,240.45
2023-06-19T12:14:01.674Z,240.96
2023-06-19T12:15:01.540Z,240.71
2023-06-19T12:16:01.512Z,240.48
2023-06-19T12:17:02.470Z,240.47
2023-06-19T12:18:01.459Z,239.51
2023-06-19T12:19:01.421Z,240.20
2023-06-19T12:20:01.373Z,239.23
2023-06-19T12:21:01.327Z,239.91
2023-06-19T12:22:01.308Z,239.50
2023-06-19T12:23:01.245Z,239.51
2023-06-19T12:24:01.265Z,240.94
2023-06-19T12:25:01.183Z,239.15
2023-06-19T12:26:01.168Z,239.95
2023-06-19T12:27:01.141Z,239.28
2023-06-19T12:28:01.138Z,239.06
2023-06-19T12:29:01.087Z,239.17
2023-06-19T12:30:01.059Z,238.87